sensor_id;sensor_type;location;lat;lon;timestamp;P1;durP1;ratioP1;P2;durP2;ratioP2
40867;SDS011;26586;50.708;22.412;2023-12-04T06:01:56;20.23;;;14.93;;
40867;SDS011;26586;50.708;22.412;2023-12-04T06:04:22;19.30;;;13.48;;
40867;SDS011;26586;50.708;22.412;2023-12-04T06:06:49;17.05;;;12.25;;
40867;SDS011;26586;50.708;22.412;2023-12-04T06:09:15;18.40;;;12.48;;
40867;SDS011;26586;50.708;22.412;2023-12-04T06:11:42;15.90;;;12.43;;
40867;SDS011;26586;50.708;22.412;2023-12-04T06:14:08;16.65;;;12.80;;
40867;SDS011;26586;50.708;22.412;2023-12-04T06:16:34;16.73;;;13.10;;
40867;SDS011;26586;50.708;22.412;2023-12-04T06:19:00;16.17;;;12.43;;
40867;SDS011;26586;50.708;22.412;2023-12-04T06:21:27;16.75;;;11.60;;
40867;SDS011;26586;50.708;22.412;2023-12-04T06:23:53;18.57;;;13.93;;
40867;SDS011;26586;50.708;22.412;2023-12-04T06:26:19;17.52;;;12.35;;
40867;SDS011;26586;50.708;22.412;2023-12-04T06:28:46;15.07;;;12.55;;
40867;SDS011;26586;50.708;22.412;2023-12-04T06:31:12;16.20;;;12.35;;
40867;SDS011;26586;50.708;22.412;2023-12-04T06:33:39;17.40;;;12.88;;
40867;SDS011;26586;50.708;22.412;2023-12-04T06:36:05;17.80;;;12.20;;
40867;SDS011;26586;50.708;22.412;2023-12-04T06:41:01;15.60;;;12.45;;
40867;SDS011;26586;50.708;22.412;2023-12-04T06:43:28;16.58;;;12.52;;
40867;SDS011;26586;50.708;22.412;2023-12-04T06:45:54;22.93;;;19.53;;
40867;SDS011;26586;50.708;22.412;2023-12-04T06:48:22;38.60;;;31.67;;
40867;SDS011;26586;50.708;22.412;2023-12-04T06:50:49;40.73;;;33.17;;
40867;SDS011;26586;50.708;22.412;2023-12-04T06:53:15;33.00;;;25.30;;
40867;SDS011;26586;50.708;22.412;2023-12-04T06:55:41;53.42;;;44.70;;
40867;SDS011;26586;50.708;22.412;2023-12-04T06:58:07;35.00;;;30.33;;
40867;SDS011;26586;50.708;22.412;2023-12-04T07:00:34;24.67;;;21.38;;
40867;SDS011;26586;50.708;22.412;2023-12-04T07:03:00;19.80;;;16.75;;
40867;SDS011;26586;50.708;22.412;2023-12-04T07:05:26;23.77;;;18.52;;
40867;SDS011;26586;50.708;22.412;2023-12-04T07:07:52;31.42;;;22.58;;
40867;SDS011;26586;50.708;22.412;2023-12-04T07:10:18;24.85;;;19.02;;
40867;SDS011;26586;50.708;22.412;2023-12-04T07:12:45;21.23;;;16.40;;
40867;SDS011;26586;50.708;22.412;2023-12-04T07:15:11;19.70;;;15.48;;
40867;SDS011;26586;50.708;22.412;2023-12-04T07:17:39;19.15;;;15.52;;
40867;SDS011;26586;50.708;22.412;2023-12-04T07:20:08;23.85;;;16.85;;
40867;SDS011;26586;50.708;22.412;2023-12-04T07:22:35;19.40;;;15.98;;
40867;SDS011;26586;50.708;22.412;2023-12-04T07:25:01;19.42;;;15.60;;
40867;SDS011;26586;50.708;22.412;2023-12-04T07:27:27;19.27;;;15.47;;
40867;SDS011;26586;50.708;22.412;2023-12-04T07:29:53;18.70;;;16.77;;
40867;SDS011;26586;50.708;22.412;2023-12-04T07:32:20;23.07;;;18.20;;
40867;SDS011;26586;50.708;22.412;2023-12-04T07:34:46;20.33;;;16.92;;
40867;SDS011;26586;50.708;22.412;2023-12-04T07:37:12;20.27;;;16.42;;
40867;SDS011;26586;50.708;22.412;2023-12-04T07:39:38;21.30;;;17.85;;
40867;SDS011;26586;50.708;22.412;2023-12-04T07:42:05;25.33;;;22.52;;
40867;SDS011;26586;50.708;22.412;2023-12-04T07:44:31;26.90;;;22.77;;
40867;SDS011;26586;50.708;22.412;2023-12-04T07:46:57;21.10;;;18.17;;
40867;SDS011;26586;50.708;22.412;2023-12-04T07:49:23;23.33;;;20.08;;
40867;SDS011;26586;50.708;22.412;2023-12-04T07:51:50;21.37;;;16.57;;
40867;SDS011;26586;50.708;22.412;2023-12-04T07:54:16;18.35;;;15.38;;
40867;SDS011;26586;50.708;22.412;2023-12-04T07:56:42;20.17;;;15.70;;
40867;SDS011;26586;50.708;22.412;2023-12-04T07:59:08;18.05;;;15.02;;
40867;SDS011;26586;50.708;22.412;2023-12-04T08:01:35;17.95;;;15.27;;
40867;SDS011;26586;50.708;22.412;2023-12-04T08:04:01;21.85;;;17.48;;
40867;SDS011;26586;50.708;22.412;2023-12-04T08:06:28;20.92;;;16.13;;
40867;SDS011;26586;50.708;22.412;2023-12-04T08:08:55;19.25;;;15.93;;
40867;SDS011;26586;50.708;22.412;2023-12-04T08:11:21;22.45;;;16.63;;
40867;SDS011;26586;50.708;22.412;2023-12-04T08:13:47;21.80;;;17.20;;
40867;SDS011;26586;50.708;22.412;2023-12-04T08:16:14;21.67;;;16.93;;
40867;SDS011;26586;50.708;22.412;2023-12-04T08:18:40;24.15;;;18.83;;
40867;SDS011;26586;50.708;22.412;2023-12-04T08:21:07;26.05;;;20.13;;
40867;SDS011;26586;50.708;22.412;2023-12-04T08:23:33;27.97;;;20.77;;
40867;SDS011;26586;50.708;22.412;2023-12-04T08:25:59;27.47;;;22.63;;
40867;SDS011;26586;50.708;22.412;2023-12-04T08:28:26;27.92;;;22.08;;
40867;SDS011;26586;50.708;22.412;2023-12-04T08:30:52;27.20;;;22.07;;
40867;SDS011;26586;50.708;22.412;2023-12-04T08:33:18;29.45;;;21.52;;
40867;SDS011;26586;50.708;22.412;2023-12-04T08:35:46;23.75;;;19.90;;
40867;SDS011;26586;50.708;22.412;2023-12-04T08:38:12;23.02;;;18.48;;
40867;SDS011;26586;50.708;22.412;2023-12-04T08:40:39;23.67;;;17.60;;
40867;SDS011;26586;50.708;22.412;2023-12-04T08:43:05;27.05;;;20.17;;
40867;SDS011;26586;50.708;22.412;2023-12-04T08:45:31;28.83;;;23.10;;
40867;SDS011;26586;50.708;22.412;2023-12-04T08:50:25;27.63;;;24.55;;
40867;SDS011;26586;50.708;22.412;2023-12-04T08:52:52;23.25;;;19.13;;
40867;SDS011;26586;50.708;22.412;2023-12-04T08:55:18;27.15;;;22.95;;
40867;SDS011;26586;50.708;22.412;2023-12-04T08:57:44;27.35;;;22.20;;
40867;SDS011;26586;50.708;22.412;2023-12-04T09:00:11;24.57;;;20.07;;
40867;SDS011;26586;50.708;22.412;2023-12-04T09:02:37;24.48;;;19.65;;
40867;SDS011;26586;50.708;22.412;2023-12-04T09:05:04;21.70;;;19.07;;
40867;SDS011;26586;50.708;22.412;2023-12-04T09:07:31;20.20;;;16.67;;
40867;SDS011;26586;50.708;22.412;2023-12-04T09:09:57;20.63;;;16.97;;
40867;SDS011;26586;50.708;22.412;2023-12-04T09:12:24;26.10;;;19.95;;
40867;SDS011;26586;50.708;22.412;2023-12-04T09:14:52;25.20;;;20.55;;
40867;SDS011;26586;50.708;22.412;2023-12-04T09:17:18;31.35;;;24.40;;
40867;SDS011;26586;50.708;22.412;2023-12-04T09:19:46;28.30;;;22.77;;
40867;SDS011;26586;50.708;22.412;2023-12-04T09:22:12;25.85;;;19.73;;
40867;SDS011;26586;50.708;22.412;2023-12-04T09:24:38;24.73;;;19.20;;
40867;SDS011;26586;50.708;22.412;2023-12-04T09:27:04;21.90;;;17.90;;
40867;SDS011;26586;50.708;22.412;2023-12-04T09:29:33;20.85;;;16.65;;
40867;SDS011;26586;50.708;22.412;2023-12-04T09:31:59;20.05;;;16.83;;
40867;SDS011;26586;50.708;22.412;2023-12-04T09:34:26;19.23;;;16.95;;
40867;SDS011;26586;50.708;22.412;2023-12-04T09:36:52;22.95;;;19.00;;
40867;SDS011;26586;50.708;22.412;2023-12-04T09:39:18;26.30;;;21.90;;
40867;SDS011;26586;50.708;22.412;2023-12-04T09:41:44;22.70;;;19.35;;
40867;SDS011;26586;50.708;22.412;2023-12-04T09:44:12;21.33;;;18.50;;
40867;SDS011;26586;50.708;22.412;2023-12-04T09:46:39;20.73;;;18.38;;
40867;SDS011;26586;50.708;22.412;2023-12-04T09:49:05;21.67;;;18.17;;
40867;SDS011;26586;50.708;22.412;2023-12-04T09:51:32;18.73;;;16.23;;
40867;SDS011;26586;50.708;22.412;2023-12-04T09:54:00;20.80;;;17.98;;
40867;SDS011;26586;50.708;22.412;2023-12-04T09:56:29;20.33;;;16.27;;
40867;SDS011;26586;50.708;22.412;2023-12-04T09:58:58;18.58;;;15.65;;
40867;SDS011;26586;50.708;22.412;2023-12-04T10:01:26;17.92;;;14.35;;
40867;SDS011;26586;50.708;22.412;2023-12-04T10:03:54;18.48;;;15.05;;
40867;SDS011;26586;50.708;22.412;2023-12-04T10:06:23;22.48;;;17.30;;
40867;SDS011;26586;50.708;22.412;2023-12-04T10:08:53;22.52;;;17.27;;
40867;SDS011;26586;50.708;22.412;2023-12-04T10:11:22;21.42;;;15.55;;
40867;SDS011;26586;50.708;22.412;2023-12-04T10:13:50;20.27;;;16.05;;
40867;SDS011;26586;50.708;22.412;2023-12-04T10:16:35;19.52;;;16.25;;
40867;SDS011;26586;50.708;22.412;2023-12-04T10:19:13;19.80;;;14.87;;
40867;SDS011;26586;50.708;22.412;2023-12-04T10:21:45;16.58;;;13.68;;
40867;SDS011;26586;50.708;22.412;2023-12-04T10:24:15;20.67;;;15.80;;
40867;SDS011;26586;50.708;22.412;2023-12-04T10:26:57;18.27;;;14.82;;
40867;SDS011;26586;50.708;22.412;2023-12-04T10:31:52;25.95;;;18.88;;
40867;SDS011;26586;50.708;22.412;2023-12-04T10:34:20;32.88;;;29.33;;
40867;SDS011;26586;50.708;22.412;2023-12-04T10:36:51;34.58;;;26.98;;
40867;SDS011;26586;50.708;22.412;2023-12-04T10:39:18;30.70;;;23.98;;
40867;SDS011;26586;50.708;22.412;2023-12-04T10:41:44;33.97;;;25.95;;
40867;SDS011;26586;50.708;22.412;2023-12-04T10:44:15;30.97;;;23.83;;
40867;SDS011;26586;50.708;22.412;2023-12-04T10:46:43;30.45;;;23.30;;
40867;SDS011;26586;50.708;22.412;2023-12-04T10:49:13;31.60;;;26.88;;
40867;SDS011;26586;50.708;22.412;2023-12-04T10:51:40;25.88;;;21.98;;
40867;SDS011;26586;50.708;22.412;2023-12-04T10:54:06;22.37;;;18.30;;
40867;SDS011;26586;50.708;22.412;2023-12-04T10:56:36;20.75;;;16.02;;
40867;SDS011;26586;50.708;22.412;2023-12-04T10:59:05;19.65;;;15.57;;
40867;SDS011;26586;50.708;22.412;2023-12-04T11:01:36;21.80;;;16.73;;
40867;SDS011;26586;50.708;22.412;2023-12-04T11:04:06;26.10;;;18.75;;
40867;SDS011;26586;50.708;22.412;2023-12-04T11:06:38;25.77;;;19.58;;
40867;SDS011;26586;50.708;22.412;2023-12-04T11:09:06;40.55;;;28.67;;
40867;SDS011;26586;50.708;22.412;2023-12-04T11:11:34;25.40;;;20.15;;
40867;SDS011;26586;50.708;22.412;2023-12-04T11:14:03;22.67;;;17.63;;
40867;SDS011;26586;50.708;22.412;2023-12-04T11:16:34;21.10;;;15.85;;
40867;SDS011;26586;50.708;22.412;2023-12-04T11:19:12;19.52;;;14.68;;
40867;SDS011;26586;50.708;22.412;2023-12-04T11:21:46;22.63;;;16.50;;
40867;SDS011;26586;50.708;22.412;2023-12-04T11:26:42;16.40;;;13.57;;
40867;SDS011;26586;50.708;22.412;2023-12-04T11:29:09;19.60;;;15.05;;
40867;SDS011;26586;50.708;22.412;2023-12-04T11:31:38;18.08;;;14.23;;
40867;SDS011;26586;50.708;22.412;2023-12-04T11:34:04;19.15;;;16.58;;
40867;SDS011;26586;50.708;22.412;2023-12-04T11:36:33;19.67;;;14.82;;
40867;SDS011;26586;50.708;22.412;2023-12-04T11:39:00;18.40;;;13.93;;
40867;SDS011;26586;50.708;22.412;2023-12-04T11:41:26;20.42;;;15.38;;
40867;SDS011;26586;50.708;22.412;2023-12-04T11:43:54;25.90;;;16.87;;
40867;SDS011;26586;50.708;22.412;2023-12-04T11:46:25;26.48;;;18.92;;
40867;SDS011;26586;50.708;22.412;2023-12-04T11:48:56;24.02;;;18.05;;
40867;SDS011;26586;50.708;22.412;2023-12-04T11:54:16;23.35;;;17.08;;
40867;SDS011;26586;50.708;22.412;2023-12-04T11:57:00;24.65;;;17.80;;
40867;SDS011;26586;50.708;22.412;2023-12-04T11:59:50;45.13;;;29.30;;
40867;SDS011;26586;50.708;22.412;2023-12-04T12:02:17;72.97;;;51.58;;
40867;SDS011;26586;50.708;22.412;2023-12-04T12:04:44;52.85;;;41.63;;
40867;SDS011;26586;50.708;22.412;2023-12-04T12:07:13;35.78;;;30.65;;
40867;SDS011;26586;50.708;22.412;2023-12-04T12:09:40;23.95;;;21.45;;
40867;SDS011;26586;50.708;22.412;2023-12-04T12:12:07;21.35;;;18.23;;
40867;SDS011;26586;50.708;22.412;2023-12-04T12:17:00;19.10;;;15.07;;
40867;SDS011;26586;50.708;22.412;2023-12-04T12:19:27;21.40;;;17.05;;
40867;SDS011;26586;50.708;22.412;2023-12-04T12:21:53;21.27;;;18.05;;
40867;SDS011;26586;50.708;22.412;2023-12-04T12:24:20;19.85;;;16.45;;
40867;SDS011;26586;50.708;22.412;2023-12-04T12:26:46;16.67;;;14.75;;
40867;SDS011;26586;50.708;22.412;2023-12-04T12:29:13;15.23;;;12.68;;
40867;SDS011;26586;50.708;22.412;2023-12-04T12:31:39;13.45;;;11.52;;
40867;SDS011;26586;50.708;22.412;2023-12-04T12:34:05;13.70;;;11.95;;
40867;SDS011;26586;50.708;22.412;2023-12-04T12:36:31;17.90;;;14.32;;
40867;SDS011;26586;50.708;22.412;2023-12-04T12:39:04;30.90;;;23.88;;
40867;SDS011;26586;50.708;22.412;2023-12-04T12:41:33;29.58;;;23.13;;
40867;SDS011;26586;50.708;22.412;2023-12-04T12:44:03;26.70;;;19.75;;
40867;SDS011;26586;50.708;22.412;2023-12-04T12:46:29;22.88;;;17.33;;
40867;SDS011;26586;50.708;22.412;2023-12-04T12:48:55;18.25;;;15.18;;
40867;SDS011;26586;50.708;22.412;2023-12-04T12:53:49;19.95;;;14.75;;
40867;SDS011;26586;50.708;22.412;2023-12-04T12:56:16;25.33;;;18.45;;
40867;SDS011;26586;50.708;22.412;2023-12-04T12:58:42;27.00;;;21.03;;
40867;SDS011;26586;50.708;22.412;2023-12-04T13:01:11;22.40;;;18.70;;
40867;SDS011;26586;50.708;22.412;2023-12-04T13:03:38;22.42;;;16.40;;
40867;SDS011;26586;50.708;22.412;2023-12-04T13:06:04;22.13;;;15.98;;
40867;SDS011;26586;50.708;22.412;2023-12-04T13:08:31;24.70;;;18.55;;
40867;SDS011;26586;50.708;22.412;2023-12-04T13:10:57;24.48;;;20.15;;
40867;SDS011;26586;50.708;22.412;2023-12-04T13:13:23;29.33;;;24.63;;
40867;SDS011;26586;50.708;22.412;2023-12-04T13:15:49;27.25;;;22.77;;
40867;SDS011;26586;50.708;22.412;2023-12-04T13:18:16;21.45;;;17.67;;
40867;SDS011;26586;50.708;22.412;2023-12-04T13:20:42;20.20;;;17.25;;
40867;SDS011;26586;50.708;22.412;2023-12-04T13:23:09;22.88;;;20.10;;
40867;SDS011;26586;50.708;22.412;2023-12-04T13:25:35;29.92;;;25.17;;
40867;SDS011;26586;50.708;22.412;2023-12-04T13:28:01;32.80;;;27.00;;
40867;SDS011;26586;50.708;22.412;2023-12-04T13:30:27;81.57;;;53.08;;
40867;SDS011;26586;50.708;22.412;2023-12-04T13:32:54;104.25;;;65.65;;
40867;SDS011;26586;50.708;22.412;2023-12-04T13:35:20;58.17;;;37.95;;
40867;SDS011;26586;50.708;22.412;2023-12-04T13:37:46;36.77;;;27.00;;
40867;SDS011;26586;50.708;22.412;2023-12-04T13:40:33;25.65;;;20.40;;
40867;SDS011;26586;50.708;22.412;2023-12-04T13:43:00;23.15;;;18.70;;
40867;SDS011;26586;50.708;22.412;2023-12-04T13:45:45;29.60;;;22.27;;
40867;SDS011;26586;50.708;22.412;2023-12-04T13:48:11;79.27;;;53.40;;
40867;SDS011;26586;50.708;22.412;2023-12-04T13:50:37;104.22;;;59.95;;
40867;SDS011;26586;50.708;22.412;2023-12-04T13:53:03;156.63;;;77.70;;
40867;SDS011;26586;50.708;22.412;2023-12-04T13:55:31;142.52;;;70.75;;
40867;SDS011;26586;50.708;22.412;2023-12-04T13:58:20;96.93;;;49.97;;
40867;SDS011;26586;50.708;22.412;2023-12-04T14:01:04;59.60;;;35.63;;
40867;SDS011;26586;50.708;22.412;2023-12-04T14:03:42;94.15;;;45.65;;
40867;SDS011;26586;50.708;22.412;2023-12-04T14:06:10;55.83;;;33.85;;
40867;SDS011;26586;50.708;22.412;2023-12-04T14:08:37;77.82;;;45.58;;
40867;SDS011;26586;50.708;22.412;2023-12-04T14:11:03;117.43;;;62.00;;
40867;SDS011;26586;50.708;22.412;2023-12-04T14:13:33;130.10;;;69.68;;
40867;SDS011;26586;50.708;22.412;2023-12-04T14:15:59;155.68;;;82.53;;
40867;SDS011;26586;50.708;22.412;2023-12-04T14:18:27;143.45;;;80.85;;
40867;SDS011;26586;50.708;22.412;2023-12-04T14:20:55;129.15;;;77.47;;
40867;SDS011;26586;50.708;22.412;2023-12-04T14:23:22;149.23;;;95.70;;
40867;SDS011;26586;50.708;22.412;2023-12-04T14:25:49;93.38;;;66.15;;
40867;SDS011;26586;50.708;22.412;2023-12-04T14:28:15;89.53;;;65.00;;
40867;SDS011;26586;50.708;22.412;2023-12-04T14:30:41;116.65;;;77.93;;
40867;SDS011;26586;50.708;22.412;2023-12-04T14:33:08;123.63;;;83.10;;
40867;SDS011;26586;50.708;22.412;2023-12-04T14:35:35;115.60;;;78.23;;
40867;SDS011;26586;50.708;22.412;2023-12-04T14:38:05;111.13;;;75.47;;
40867;SDS011;26586;50.708;22.412;2023-12-04T14:40:31;144.90;;;97.18;;
40867;SDS011;26586;50.708;22.412;2023-12-04T14:42:58;169.65;;;112.15;;
40867;SDS011;26586;50.708;22.412;2023-12-04T14:45:24;193.88;;;122.15;;
40867;SDS011;26586;50.708;22.412;2023-12-04T14:47:51;221.88;;;134.95;;
40867;SDS011;26586;50.708;22.412;2023-12-04T14:50:21;222.38;;;137.18;;
40867;SDS011;26586;50.708;22.412;2023-12-04T14:52:47;189.85;;;121.78;;
40867;SDS011;26586;50.708;22.412;2023-12-04T14:55:18;124.60;;;85.35;;
40867;SDS011;26586;50.708;22.412;2023-12-04T14:57:51;103.85;;;77.80;;
40867;SDS011;26586;50.708;22.412;2023-12-04T15:00:20;97.18;;;80.90;;
40867;SDS011;26586;50.708;22.412;2023-12-04T15:03:05;95.63;;;74.45;;
40867;SDS011;26586;50.708;22.412;2023-12-04T15:05:57;117.95;;;86.88;;
40867;SDS011;26586;50.708;22.412;2023-12-04T15:08:39;112.20;;;82.15;;
40867;SDS011;26586;50.708;22.412;2023-12-04T15:11:31;117.40;;;85.97;;
40867;SDS011;26586;50.708;22.412;2023-12-04T15:14:19;125.15;;;91.40;;
40867;SDS011;26586;50.708;22.412;2023-12-04T15:16:48;149.32;;;95.80;;
40867;SDS011;26586;50.708;22.412;2023-12-04T15:22:01;183.57;;;125.78;;
40867;SDS011;26586;50.708;22.412;2023-12-04T15:24:28;192.48;;;134.85;;
40867;SDS011;26586;50.708;22.412;2023-12-04T15:26:54;205.32;;;150.02;;
40867;SDS011;26586;50.708;22.412;2023-12-04T15:29:20;248.77;;;184.53;;
40867;SDS011;26586;50.708;22.412;2023-12-04T15:31:47;226.93;;;178.38;;
40867;SDS011;26586;50.708;22.412;2023-12-04T15:34:13;216.32;;;165.55;;
40867;SDS011;26586;50.708;22.412;2023-12-04T15:36:39;210.27;;;155.35;;
40867;SDS011;26586;50.708;22.412;2023-12-04T15:39:05;213.88;;;155.25;;
40867;SDS011;26586;50.708;22.412;2023-12-04T15:41:32;212.30;;;150.23;;
40867;SDS011;26586;50.708;22.412;2023-12-04T15:43:58;222.20;;;152.10;;
40867;SDS011;26586;50.708;22.412;2023-12-04T15:46:24;218.00;;;146.48;;
40867;SDS011;26586;50.708;22.412;2023-12-04T15:48:52;217.00;;;142.65;;
40867;SDS011;26586;50.708;22.412;2023-12-04T15:51:19;246.88;;;146.23;;
40867;SDS011;26586;50.708;22.412;2023-12-04T15:53:45;264.63;;;144.77;;
40867;SDS011;26586;50.708;22.412;2023-12-04T15:56:11;226.02;;;125.53;;
40867;SDS011;26586;50.708;22.412;2023-12-04T15:58:37;187.60;;;111.47;;
40867;SDS011;26586;50.708;22.412;2023-12-04T16:01:04;146.23;;;93.07;;
40867;SDS011;26586;50.708;22.412;2023-12-04T16:05:57;127.50;;;80.95;;
40867;SDS011;26586;50.708;22.412;2023-12-04T16:08:23;127.95;;;83.15;;
40867;SDS011;26586;50.708;22.412;2023-12-04T16:10:49;127.03;;;83.10;;
40867;SDS011;26586;50.708;22.412;2023-12-04T16:13:16;125.10;;;83.37;;
40867;SDS011;26586;50.708;22.412;2023-12-04T16:15:42;133.15;;;87.35;;
40867;SDS011;26586;50.708;22.412;2023-12-04T16:18:14;131.38;;;89.32;;
40867;SDS011;26586;50.708;22.412;2023-12-04T16:20:40;135.18;;;91.97;;
40867;SDS011;26586;50.708;22.412;2023-12-04T16:23:07;140.48;;;96.88;;
40867;SDS011;26586;50.708;22.412;2023-12-04T16:25:33;150.40;;;98.20;;
40867;SDS011;26586;50.708;22.412;2023-12-04T16:28:00;144.73;;;98.55;;
40867;SDS011;26586;50.708;22.412;2023-12-04T16:30:26;155.60;;;106.72;;
40867;SDS011;26586;50.708;22.412;2023-12-04T16:32:53;161.40;;;110.93;;
40867;SDS011;26586;50.708;22.412;2023-12-04T16:35:20;173.45;;;118.68;;
40867;SDS011;26586;50.708;22.412;2023-12-04T16:37:47;190.77;;;127.53;;
40867;SDS011;26586;50.708;22.412;2023-12-04T16:40:13;240.82;;;160.23;;
40867;SDS011;26586;50.708;22.412;2023-12-04T16:42:40;304.50;;;201.90;;
40867;SDS011;26586;50.708;22.412;2023-12-04T16:45:07;328.33;;;223.00;;
40867;SDS011;26586;50.708;22.412;2023-12-04T16:47:34;315.67;;;214.85;;
40867;SDS011;26586;50.708;22.412;2023-12-04T16:50:00;295.70;;;196.38;;
40867;SDS011;26586;50.708;22.412;2023-12-04T16:52:26;254.90;;;165.80;;
40867;SDS011;26586;50.708;22.412;2023-12-04T16:54:53;222.63;;;145.57;;
40867;SDS011;26586;50.708;22.412;2023-12-04T16:57:20;234.60;;;149.70;;
40867;SDS011;26586;50.708;22.412;2023-12-04T16:59:46;289.27;;;189.30;;
40867;SDS011;26586;50.708;22.412;2023-12-04T17:02:13;389.50;;;255.48;;
40867;SDS011;26586;50.708;22.412;2023-12-04T17:04:39;403.67;;;262.38;;
40867;SDS011;26586;50.708;22.412;2023-12-04T17:07:05;404.73;;;259.42;;
40867;SDS011;26586;50.708;22.412;2023-12-04T17:09:32;394.65;;;243.23;;
40867;SDS011;26586;50.708;22.412;2023-12-04T17:14:25;313.08;;;180.18;;
40867;SDS011;26586;50.708;22.412;2023-12-04T17:16:51;347.90;;;201.23;;
40867;SDS011;26586;50.708;22.412;2023-12-04T17:19:17;291.48;;;177.95;;
40867;SDS011;26586;50.708;22.412;2023-12-04T17:21:44;249.20;;;150.60;;
40867;SDS011;26586;50.708;22.412;2023-12-04T17:24:10;201.05;;;126.28;;
40867;SDS011;26586;50.708;22.412;2023-12-04T17:26:37;190.37;;;120.27;;
40867;SDS011;26586;50.708;22.412;2023-12-04T17:29:03;176.45;;;113.38;;
40867;SDS011;26586;50.708;22.412;2023-12-04T17:31:29;176.40;;;112.47;;
40867;SDS011;26586;50.708;22.412;2023-12-04T17:33:55;173.38;;;112.70;;
40867;SDS011;26586;50.708;22.412;2023-12-04T17:36:21;171.47;;;113.13;;
40867;SDS011;26586;50.708;22.412;2023-12-04T17:38:47;179.52;;;118.40;;
40867;SDS011;26586;50.708;22.412;2023-12-04T17:41:14;201.90;;;129.95;;
40867;SDS011;26586;50.708;22.412;2023-12-04T17:43:40;221.02;;;136.40;;
40867;SDS011;26586;50.708;22.412;2023-12-04T17:46:06;217.20;;;135.80;;
40867;SDS011;26586;50.708;22.412;2023-12-04T17:48:33;203.10;;;128.85;;
40867;SDS011;26586;50.708;22.412;2023-12-04T17:51:00;198.77;;;126.07;;
40867;SDS011;26586;50.708;22.412;2023-12-04T17:53:26;192.27;;;120.47;;
40867;SDS011;26586;50.708;22.412;2023-12-04T17:55:52;193.53;;;121.33;;
40867;SDS011;26586;50.708;22.412;2023-12-04T17:58:18;207.13;;;123.43;;
40867;SDS011;26586;50.708;22.412;2023-12-04T18:00:44;193.80;;;119.65;;
40867;SDS011;26586;50.708;22.412;2023-12-04T18:03:15;202.32;;;124.68;;
40867;SDS011;26586;50.708;22.412;2023-12-04T18:05:41;192.93;;;115.45;;
40867;SDS011;26586;50.708;22.412;2023-12-04T18:08:08;215.57;;;128.38;;
40867;SDS011;26586;50.708;22.412;2023-12-04T18:10:37;244.25;;;148.80;;
40867;SDS011;26586;50.708;22.412;2023-12-04T18:13:03;246.18;;;147.02;;
40867;SDS011;26586;50.708;22.412;2023-12-04T18:15:30;218.90;;;137.27;;
40867;SDS011;26586;50.708;22.412;2023-12-04T18:17:56;220.27;;;134.45;;
40867;SDS011;26586;50.708;22.412;2023-12-04T18:20:22;206.98;;;130.38;;
40867;SDS011;26586;50.708;22.412;2023-12-04T18:22:48;199.93;;;122.32;;
40867;SDS011;26586;50.708;22.412;2023-12-04T18:25:15;200.13;;;122.78;;
40867;SDS011;26586;50.708;22.412;2023-12-04T18:27:41;206.75;;;124.60;;
40867;SDS011;26586;50.708;22.412;2023-12-04T18:30:08;206.88;;;125.50;;
40867;SDS011;26586;50.708;22.412;2023-12-04T18:32:36;184.18;;;114.55;;
40867;SDS011;26586;50.708;22.412;2023-12-04T18:35:02;184.40;;;115.40;;
40867;SDS011;26586;50.708;22.412;2023-12-04T18:37:34;186.73;;;117.10;;
40867;SDS011;26586;50.708;22.412;2023-12-04T18:40:08;183.73;;;116.90;;
40867;SDS011;26586;50.708;22.412;2023-12-04T18:42:35;184.82;;;121.15;;
40867;SDS011;26586;50.708;22.412;2023-12-04T18:45:02;208.88;;;137.02;;
40867;SDS011;26586;50.708;22.412;2023-12-04T18:47:28;217.20;;;141.52;;
40867;SDS011;26586;50.708;22.412;2023-12-04T18:49:56;217.60;;;138.95;;
40867;SDS011;26586;50.708;22.412;2023-12-04T18:52:23;220.35;;;137.18;;
40867;SDS011;26586;50.708;22.412;2023-12-04T18:54:49;231.10;;;143.65;;
40867;SDS011;26586;50.708;22.412;2023-12-04T18:57:15;249.40;;;160.73;;
40867;SDS011;26586;50.708;22.412;2023-12-04T18:59:42;271.00;;;169.70;;
40867;SDS011;26586;50.708;22.412;2023-12-04T19:02:08;226.68;;;141.75;;
40867;SDS011;26586;50.708;22.412;2023-12-04T19:04:34;229.15;;;132.57;;
40867;SDS011;26586;50.708;22.412;2023-12-04T19:07:02;214.68;;;129.95;;
40867;SDS011;26586;50.708;22.412;2023-12-04T19:09:29;199.00;;;123.55;;
40867;SDS011;26586;50.708;22.412;2023-12-04T19:11:55;157.80;;;99.88;;
40867;SDS011;26586;50.708;22.412;2023-12-04T19:14:21;142.52;;;85.13;;
40867;SDS011;26586;50.708;22.412;2023-12-04T19:16:47;153.75;;;83.28;;
40867;SDS011;26586;50.708;22.412;2023-12-04T19:19:14;165.83;;;86.07;;
40867;SDS011;26586;50.708;22.412;2023-12-04T19:21:40;176.60;;;94.32;;
40867;SDS011;26586;50.708;22.412;2023-12-04T19:24:06;185.10;;;100.45;;
40867;SDS011;26586;50.708;22.412;2023-12-04T19:26:32;182.38;;;102.68;;
40867;SDS011;26586;50.708;22.412;2023-12-04T19:28:58;192.05;;;112.75;;
40867;SDS011;26586;50.708;22.412;2023-12-04T19:31:24;207.35;;;120.68;;
40867;SDS011;26586;50.708;22.412;2023-12-04T19:33:51;200.37;;;119.83;;
40867;SDS011;26586;50.708;22.412;2023-12-04T19:36:17;210.07;;;122.93;;
40867;SDS011;26586;50.708;22.412;2023-12-04T19:38:44;197.68;;;120.30;;
40867;SDS011;26586;50.708;22.412;2023-12-04T19:41:10;199.60;;;119.32;;
40867;SDS011;26586;50.708;22.412;2023-12-04T19:46:03;214.60;;;124.88;;
40867;SDS011;26586;50.708;22.412;2023-12-04T19:48:30;198.70;;;118.57;;
40867;SDS011;26586;50.708;22.412;2023-12-04T19:50:56;195.30;;;117.57;;
40867;SDS011;26586;50.708;22.412;2023-12-04T19:53:22;181.67;;;112.77;;
40867;SDS011;26586;50.708;22.412;2023-12-04T19:55:49;169.05;;;104.95;;
40867;SDS011;26586;50.708;22.412;2023-12-04T19:58:15;162.73;;;100.70;;
40867;SDS011;26586;50.708;22.412;2023-12-04T20:00:41;150.95;;;97.13;;
40867;SDS011;26586;50.708;22.412;2023-12-04T20:03:07;156.73;;;97.88;;
40867;SDS011;26586;50.708;22.412;2023-12-04T20:05:35;156.43;;;98.40;;
40867;SDS011;26586;50.708;22.412;2023-12-04T20:08:02;161.50;;;100.53;;
40867;SDS011;26586;50.708;22.412;2023-12-04T20:10:29;149.07;;;90.50;;
40867;SDS011;26586;50.708;22.412;2023-12-04T20:12:56;133.07;;;87.80;;
40867;SDS011;26586;50.708;22.412;2023-12-04T20:15:22;132.55;;;85.10;;
40867;SDS011;26586;50.708;22.412;2023-12-04T20:17:49;135.00;;;87.10;;
40867;SDS011;26586;50.708;22.412;2023-12-04T20:20:17;140.70;;;91.03;;
40867;SDS011;26586;50.708;22.412;2023-12-04T20:22:45;153.95;;;94.78;;
40867;SDS011;26586;50.708;22.412;2023-12-04T20:25:11;146.80;;;88.18;;
40867;SDS011;26586;50.708;22.412;2023-12-04T20:27:37;153.90;;;93.15;;
40867;SDS011;26586;50.708;22.412;2023-12-04T20:30:04;154.30;;;93.28;;